Abbott, Mississippi
Current Conditions -  °F | °C
As of 11:35 PM on Friday 31 Oct 2014 (Local Time) from KSTF Reporting Station
Clear Clear  
Wind Chill: 38°   Ceiling: Unl
Heat Index: 41°   Visibility: 10mi
Dew Point: 28°   Wind: 5mph
Humidity: 61%   Direction: 330°NNW
Pressure: 30.27"   Gusts: NA
Location:  33.6681°N, 88.7618°W
Report Text: KSTF 010435Z AUTO 33004KT 10SM CLR 05/M02 A3027 RMK AO2
Loading
Personal Weather Stations






























Interactive Weather Map
Tropical Storm Tracking
New forecast layout! Learn more

10-Day Weather Forecast

Advertisements
Track Severe Weather on mobile